Time;durP1;ratioP1;P1;durP2;ratioP2;P2;SDS_P1;SDS_P2;PMS_P1;PMS_P2;Temp;Humidity;BMP_temperature;BMP_pressure;BME280_temperature;BME280_humidity;BME280_pressure;Samples;Min_cycle;Max_cycle;Signal;HPM_P1;HPM_P2
2022/01/19 00:01:17;;;;;;;8.10;3.63;;;2.10;99.90;;;;;;6281761;22;20338;-86
2022/01/19 00:03:43;;;;;;;8.13;3.70;;;2.10;99.90;;;;;;6282246;22;20003;-86
2022/01/19 00:06:09;;;;;;;6.23;3.60;;;2.00;99.90;;;;;;6283071;22;20003;-86
2022/01/19 00:08:35;;;;;;;10.40;3.97;;;2.00;99.90;;;;;;6280778;22;20024;-86
2022/01/19 00:11:01;;;;;;;10.50;4.30;;;2.00;99.90;;;;;;6280386;22;20000;-86
2022/01/19 00:13:26;;;;;;;7.67;4.07;;;2.00;99.90;;;;;;6281019;22;20399;-86
2022/01/19 00:15:53;;;;;;;11.67;4.27;;;2.00;99.90;;;;;;6282846;22;20003;-86
2022/01/19 00:18:21;;;;;;;10.20;4.37;;;2.00;99.90;;;;;;6280059;22;20004;-86
2022/01/19 00:20:48;;;;;;;9.83;4.10;;;2.00;99.90;;;;;;6281238;22;20000;-86
2022/01/19 00:23:16;;;;;;;8.03;4.27;;;1.90;99.90;;;;;;6280370;22;20015;-87
2022/01/19 00:25:42;;;;;;;9.47;4.43;;;1.90;99.90;;;;;;6277115;22;20000;-85
2022/01/19 00:28:08;;;;;;;8.37;4.23;;;1.90;99.90;;;;;;6278351;22;20049;-86
2022/01/19 00:30:34;;;;;;;9.57;4.20;;;1.90;99.90;;;;;;6274962;22;20031;-85
2022/01/19 00:33:00;;;;;;;8.60;4.10;;;1.80;99.90;;;;;;6277383;22;19996;-85
2022/01/19 00:35:26;;;;;;;8.67;3.97;;;1.80;99.90;;;;;;6277262;22;20307;-85
2022/01/19 00:37:51;;;;;;;9.43;4.17;;;1.80;99.90;;;;;;6276218;22;20011;-85
2022/01/19 00:40:18;;;;;;;7.70;4.40;;;1.80;99.90;;;;;;6273716;22;20322;-85
2022/01/19 00:42:44;;;;;;;8.23;3.90;;;1.80;99.90;;;;;;6276922;22;20365;-85
2022/01/19 00:45:12;;;;;;;7.60;3.73;;;1.70;99.90;;;;;;6274307;22;20057;-85
2022/01/19 00:47:38;;;;;;;10.37;3.90;;;1.70;99.90;;;;;;6275350;22;20000;-85
2022/01/19 00:50:06;;;;;;;7.17;3.57;;;1.70;99.90;;;;;;6274365;22;20513;-85
2022/01/19 00:52:31;;;;;;;7.60;3.50;;;1.60;99.90;;;;;;6277230;22;20095;-85
2022/01/19 00:54:57;;;;;;;7.87;3.67;;;1.60;99.90;;;;;;6277796;22;20003;-85
2022/01/19 00:57:23;;;;;;;8.30;4.43;;;1.50;99.90;;;;;;6277318;22;20067;-85
2022/01/19 00:59:50;;;;;;;9.43;3.77;;;1.50;99.90;;;;;;6274012;22;20004;-85
2022/01/19 01:02:16;;;;;;;8.23;3.40;;;1.50;99.90;;;;;;6276874;22;20430;-85
2022/01/19 01:04:42;;;;;;;6.13;3.27;;;1.50;99.90;;;;;;6275522;22;20012;-85
2022/01/19 01:07:08;;;;;;;11.20;4.00;;;1.50;99.90;;;;;;6275127;22;20083;-85
2022/01/19 01:09:33;;;;;;;6.73;3.90;;;1.50;99.90;;;;;;6274777;22;20004;-85
2022/01/19 01:20:01;;;;;;;10.87;3.70;;;1.40;99.90;;;;;;6276717;22;20029;-85
2022/01/19 01:22:27;;;;;;;6.63;3.07;;;1.40;99.90;;;;;;6278654;22;20426;-85
2022/01/19 01:24:52;;;;;;;8.50;4.53;;;1.40;99.90;;;;;;6279992;22;20000;-86
2022/01/19 01:27:18;;;;;;;6.87;3.87;;;1.40;99.90;;;;;;6280510;22;20541;-86
2022/01/19 03:59:14;;;;;;;11.87;4.70;;;0.60;99.90;;;;;;6270278;22;20103;-91
2022/01/19 04:01:57;;;;;;;11.60;4.77;;;0.50;99.90;;;;;;6187203;23;20051;-92
2022/01/19 04:07:27;;;;;;;8.13;3.90;;;0.60;99.90;;;;;;6214478;23;20016;-91
2022/01/19 04:10:17;;;;;;;9.90;4.63;;;0.50;99.90;;;;;;6187814;23;20008;-91
2022/01/19 04:16:46;;;;;;;;;;;;;;;;;;;;;
2022/01/19 04:20:03;;;;;;;;;;;;;;;;;;;;;
2022/01/19 04:22:44;;;;;;;14.83;5.27;;;0.30;99.90;;;;;;6213827;23;20367;-90
2022/01/19 04:25:36;;;;;;;10.53;4.77;;;0.30;99.90;;;;;;6187287;23;20040;-90
2022/01/19 04:28:11;;;;;;;14.90;5.70;;;0.30;99.90;;;;;;6186292;23;20374;-91
2022/01/19 04:30:51;;;;;;;10.23;4.60;;;0.20;99.90;;;;;;6187520;23;20036;-89
2022/01/19 04:33:23;;;;;;;12.53;4.63;;;0.20;99.90;;;;;;6187773;23;20000;-89
2022/01/19 04:36:07;;;;;;;;;;;0.20;99.90;;;;;;6188381;23;20092;-89
2022/01/19 04:39:17;;;;;;;12.23;4.73;;;0.10;99.90;;;;;;6189195;23;19950;-90
2022/01/19 05:01:57;;;;;;;8.83;4.47;;;-0.10;99.90;;;;;;6232521;23;20015;-91
2022/01/19 05:14:15;;;;;;;;;;;;;;;;;;;;;
2022/01/19 05:16:59;;;;;;;11.17;4.67;;;0.10;99.90;;;;;;6249584;23;20078;-90
2022/01/19 05:20:13;;;;;;;8.83;4.53;;;0.10;99.90;;;;;;6247043;23;20051;-91
2022/01/19 05:22:44;;;;;;;11.57;4.90;;;0.10;99.90;;;;;;6094201;23;20010;-91
2022/01/19 05:25:41;;;;;;;11.10;4.57;;;0.10;99.90;;;;;;6227720;23;20004;-90
2022/01/19 05:28:28;;;;;;;9.83;4.67;;;0.10;99.90;;;;;;6112232;23;20036;-90
2022/01/19 05:34:32;;;;;;;;;;;;;;;;;;;;;
2022/01/19 05:44:16;;;;;;;;;;;;;;;;;;;;;
2022/01/19 05:46:45;;;;;;;10.53;4.77;;;-0.10;99.90;;;;;;6251407;23;20027;-92
2022/01/19 05:49:31;;;;;;;11.23;4.13;;;-0.10;99.90;;;;;;6225391;23;20008;-92
2022/01/19 05:52:08;;;;;;;10.27;4.20;;;-0.20;99.90;;;;;;6221783;23;20007;-92
2022/01/19 05:58:43;;;;;;;11.07;5.10;;;-0.20;99.90;;;;;;6213528;23;20015;-91
2022/01/19 06:01:28;;;;;;;10.57;4.23;;;-0.40;99.90;;;;;;6248281;23;20014;-91
2022/01/19 06:04:00;;;;;;;14.10;4.57;;;-0.40;99.90;;;;;;6223373;23;20011;-91
2022/01/19 06:06:26;;;;;;;11.00;4.03;;;-0.40;99.90;;;;;;6223717;23;20661;-91
2022/01/19 06:09:03;;;;;;;9.17;4.53;;;-0.40;99.90;;;;;;6224737;23;20261;-91
2022/01/19 06:11:34;;;;;;;9.23;4.17;;;-0.40;99.90;;;;;;6224100;23;20014;-92
2022/01/19 06:14:02;;;;;;;12.37;5.00;;;-0.50;99.90;;;;;;6220759;23;20004;-93
2022/01/19 06:16:49;;;;;;;11.97;4.93;;;-0.40;99.90;;;;;;6223283;23;20023;-92
2022/01/19 06:19:18;;;;;;;10.30;4.37;;;-0.40;99.90;;;;;;6248311;23;20000;-91
2022/01/19 06:21:43;;;;;;;12.43;5.07;;;-0.40;99.90;;;;;;6226968;23;20000;-91
2022/01/19 06:24:09;;;;;;;10.67;4.60;;;-0.40;99.90;;;;;;6224132;23;20008;-91
2022/01/19 06:26:38;;;;;;;8.80;4.47;;;-0.40;99.90;;;;;;6220379;23;20000;-91
2022/01/19 06:29:10;;;;;;;8.73;4.00;;;-0.40;99.90;;;;;;6220064;23;20008;-91
2022/01/19 06:31:39;;;;;;;10.55;4.60;;;-0.40;99.90;;;;;;6219101;23;20276;-91
2022/01/19 06:34:48;;;;;;;;;;;;;;;;;;;;;
2022/01/19 06:37:43;;;;;;;;;;;;;;;;;;;;;
2022/01/19 06:43:52;;;;;;;;;;;-0.40;99.90;;;;;;6095392;23;20037;-91
2022/01/19 07:03:32;;;;;;;13.90;5.20;;;-0.30;99.90;;;;;;6036872;23;20433;-93
2022/01/19 07:32:24;;;;;;;10.63;4.80;;;-0.30;99.90;;;;;;6254851;23;20030;-84
2022/01/19 07:34:52;;;;;;;11.93;4.63;;;-0.30;99.90;;;;;;6229039;23;20067;-85
2022/01/19 07:37:21;;;;;;;10.67;4.93;;;-0.30;99.90;;;;;;6228800;23;20216;-85
2022/01/19 07:39:47;;;;;;;13.43;4.10;;;-0.20;99.90;;;;;;6229531;22;20035;-85
2022/01/19 07:42:12;;;;;;;12.97;4.47;;;-0.20;99.90;;;;;;6259994;22;20073;-85
2022/01/19 07:44:41;;;;;;;15.40;5.50;;;-0.20;99.90;;;;;;6259251;22;20059;-85
2022/01/19 07:47:07;;;;;;;10.77;4.70;;;-0.20;99.90;;;;;;6286047;22;20000;-87
2022/01/19 07:49:34;;;;;;;11.93;5.00;;;-0.20;99.90;;;;;;6256195;22;20015;-87
2022/01/19 07:51:59;;;;;;;10.20;4.90;;;-0.20;99.90;;;;;;6285549;22;20003;-87
2022/01/19 07:54:25;;;;;;;11.13;4.23;;;-0.20;99.90;;;;;;6260044;22;20012;-87
2022/01/19 07:56:51;;;;;;;10.53;4.70;;;-0.20;99.90;;;;;;6260946;22;20007;-87
2022/01/19 07:59:17;;;;;;;13.50;4.13;;;-0.20;99.90;;;;;;6287817;22;20057;-87
2022/01/19 08:01:47;;;;;;;11.03;4.50;;;-0.20;99.90;;;;;;6286620;22;20007;-87
2022/01/19 08:04:18;;;;;;;13.00;5.50;;;-0.20;99.90;;;;;;6297390;22;20000;-87
2022/01/19 08:06:44;;;;;;;10.17;4.97;;;-0.10;99.90;;;;;;6287064;22;20026;-87
2022/01/19 08:09:12;;;;;;;12.10;5.10;;;-0.10;99.90;;;;;;6259176;22;20039;-87
2022/01/19 08:12:13;;;;;;;12.07;5.13;;;0.00;99.90;;;;;;6291781;22;19995;-87
2022/01/19 08:14:44;;;;;;;11.50;4.63;;;-0.10;99.90;;;;;;6285803;22;20004;-87
2022/01/19 08:17:35;;;;;;;12.38;4.65;;;0.00;99.90;;;;;;6295028;22;20004;-86
2022/01/19 08:20:04;;;;;;;13.20;4.90;;;0.00;99.90;;;;;;6268847;22;20003;-87
2022/01/19 08:22:51;;;;;;;12.43;4.47;;;0.00;99.90;;;;;;6299335;22;20049;-87
2022/01/19 08:25:17;;;;;;;10.70;4.97;;;0.10;99.90;;;;;;6294343;22;20496;-88
2022/01/19 08:27:43;;;;;;;14.50;5.47;;;0.10;99.90;;;;;;6259630;22;19999;-87
2022/01/19 08:30:10;;;;;;;8.87;4.70;;;0.10;99.90;;;;;;6285963;22;20004;-88
2022/01/19 08:32:42;;;;;;;13.83;4.80;;;0.10;99.90;;;;;;6284710;22;20018;-88
2022/01/19 08:35:11;;;;;;;13.40;5.05;;;0.20;99.90;;;;;;6284459;22;20053;-87
2022/01/19 08:37:37;;;;;;;13.57;5.20;;;0.40;99.90;;;;;;6285808;22;20004;-88
2022/01/19 08:40:08;;;;;;;14.37;5.67;;;0.40;99.90;;;;;;6258891;22;20007;-88
2022/01/19 08:42:43;;;;;;;11.10;4.70;;;0.40;99.90;;;;;;6286881;22;20003;-88
2022/01/19 08:45:11;;;;;;;11.43;5.43;;;0.40;99.90;;;;;;6259749;22;20289;-88
2022/01/19 08:47:39;;;;;;;15.23;5.80;;;0.40;99.90;;;;;;6284191;22;20004;-87
2022/01/19 08:50:07;;;;;;;13.73;5.70;;;0.50;99.90;;;;;;6285260;22;19999;-88
2022/01/19 08:52:34;;;;;;;12.70;5.97;;;0.60;99.90;;;;;;6279983;22;20012;-88
2022/01/19 08:55:04;;;;;;;12.30;5.70;;;0.60;99.90;;;;;;6282507;22;20010;-88
2022/01/19 08:57:32;;;;;;;14.27;6.13;;;0.60;99.90;;;;;;6283988;22;20384;-88
2022/01/19 09:00:05;;;;;;;10.50;5.20;;;0.70;99.90;;;;;;6262627;22;20010;-88
2022/01/19 09:02:31;;;;;;;15.80;5.43;;;0.80;99.90;;;;;;6289514;22;20070;-88
2022/01/19 09:04:57;;;;;;;13.43;6.17;;;0.90;99.90;;;;;;6294052;22;20003;-88
2022/01/19 09:07:22;;;;;;;13.27;5.83;;;0.90;99.90;;;;;;6290440;22;20011;-88
2022/01/19 09:09:51;;;;;;;13.73;5.80;;;0.90;99.90;;;;;;6291644;22;20000;-88
2022/01/19 09:12:17;;;;;;;13.70;5.27;;;1.00;99.90;;;;;;6292248;22;20094;-89
2022/01/19 09:14:50;;;;;;;13.10;6.17;;;1.10;99.90;;;;;;6291912;22;20000;-88
2022/01/19 09:17:22;;;;;;;13.60;6.07;;;1.10;99.90;;;;;;6263518;22;20059;-88
2022/01/19 09:19:48;;;;;;;9.67;5.23;;;1.10;99.90;;;;;;6287952;22;20069;-88
2022/01/19 09:22:21;;;;;;;11.13;5.43;;;1.10;99.90;;;;;;6263113;22;20008;-88
2022/01/19 09:24:46;;;;;;;;;;;1.10;99.90;;;;;;6290856;22;20008;-88
2022/01/19 09:27:18;;;;;;;14.43;5.67;;;1.20;99.90;;;;;;6291146;22;19907;-88
2022/01/19 09:29:47;;;;;;;13.50;6.28;;;1.40;99.90;;;;;;6292937;22;20445;-87
2022/01/19 09:32:16;;;;;;;14.97;6.37;;;1.40;99.90;;;;;;6293784;22;20004;-87
2022/01/19 09:34:54;;;;;;;13.40;6.03;;;1.50;99.90;;;;;;6265088;22;20004;-88
2022/01/19 09:37:23;;;;;;;13.67;6.40;;;1.60;99.90;;;;;;6290435;22;20071;-88
2022/01/19 09:39:49;;;;;;;13.57;5.83;;;1.60;99.90;;;;;;6263864;22;20004;-88
2022/01/19 09:42:14;;;;;;;13.60;5.63;;;1.60;99.90;;;;;;6290908;22;20011;-89
2022/01/19 09:44:52;;;;;;;14.77;6.87;;;1.70;99.90;;;;;;6266703;22;20010;-87
2022/01/19 09:47:19;;;;;;;15.30;5.47;;;1.80;99.90;;;;;;6294780;22;20027;-88
2022/01/19 09:49:50;;;;;;;15.70;6.37;;;1.90;99.90;;;;;;6295393;22;20008;-88
2022/01/19 09:52:24;;;;;;;17.00;6.33;;;1.90;99.90;;;;;;6270467;22;20000;-88
2022/01/19 09:54:55;;;;;;;11.70;5.93;;;2.00;99.90;;;;;;6269207;22;20004;-88
2022/01/19 09:57:28;;;;;;;11.83;5.57;;;2.10;99.90;;;;;;6294949;22;20004;-88
2022/01/19 10:00:07;;;;;;;10.53;5.33;;;2.10;99.90;;;;;;6293929;22;20004;-87
2022/01/19 10:02:38;;;;;;;11.80;5.73;;;2.20;99.90;;;;;;6291111;22;20355;-87
2022/01/19 10:05:08;;;;;;;14.57;6.27;;;2.30;99.90;;;;;;6268404;22;20071;-88
2022/01/19 10:07:35;;;;;;;14.37;5.50;;;2.30;99.90;;;;;;6264183;22;20003;-88
2022/01/19 10:10:08;;;;;;;10.90;5.60;;;2.30;99.90;;;;;;6294168;22;20433;-88
2022/01/19 10:18:29;;;;;;;10.90;5.23;;;2.60;99.90;;;;;;6293046;22;20034;-89
2022/01/19 10:21:09;;;;;;;13.40;5.80;;;2.70;99.90;;;;;;6264454;22;20003;-86
2022/01/19 10:23:50;;;;;;;11.87;5.13;;;2.70;99.90;;;;;;6292825;22;20007;-89
2022/01/19 10:26:45;;;;;;;12.53;5.07;;;2.80;99.90;;;;;;6296562;22;20006;-88
2022/01/19 10:29:30;;;;;;;11.30;5.90;;;2.90;99.90;;;;;;6297538;22;19997;-88
2022/01/19 10:32:07;;;;;;;16.57;5.80;;;3.00;99.90;;;;;;6269049;22;20004;-88
2022/01/19 10:34:36;;;;;;;10.13;4.77;;;3.10;99.90;;;;;;6293933;22;20034;-89
2022/01/19 10:37:48;;;;;;;13.83;5.13;;;3.10;99.90;;;;;;6293330;22;20059;-88
2022/01/19 10:40:22;;;;;;;15.10;6.13;;;3.20;99.90;;;;;;6248109;22;20004;-87
2022/01/19 10:42:54;;;;;;;18.23;7.10;;;3.30;99.90;;;;;;6292907;22;19991;-88
2022/01/19 10:45:32;;;;;;;18.23;7.63;;;3.30;99.90;;;;;;6265380;22;20019;-88
2022/01/19 10:48:05;;;;;;;12.27;6.33;;;3.40;99.90;;;;;;6293078;22;20000;-88
2022/01/19 10:50:38;;;;;;;20.20;7.87;;;3.40;99.90;;;;;;6296031;22;19996;-88
2022/01/19 10:53:07;;;;;;;12.20;5.80;;;3.50;99.90;;;;;;6240228;22;19992;-88
2022/01/19 10:55:42;;;;;;;11.20;4.97;;;3.50;99.90;;;;;;6297377;22;20086;-88
2022/01/19 10:58:18;;;;;;;12.90;5.10;;;3.50;99.90;;;;;;6272069;22;20004;-88
2022/01/19 11:00:52;;;;;;;9.60;4.07;;;3.50;99.90;;;;;;6270639;22;20023;-88
2022/01/19 11:03:25;;;;;;;13.07;5.33;;;3.60;99.90;;;;;;6294447;22;20014;-88
2022/01/19 11:05:59;;;;;;;42.40;15.90;;;3.60;99.90;;;;;;6289045;22;20011;-88
2022/01/19 11:08:30;;;;;;;24.33;11.37;;;3.70;99.90;;;;;;6291924;22;20008;-87
2022/01/19 11:11:02;;;;;;;11.23;5.53;;;3.70;99.90;;;;;;6294356;22;20055;-87
2022/01/19 11:13:39;;;;;;;11.43;5.47;;;3.80;99.90;;;;;;6291796;22;20055;-87
2022/01/19 11:16:10;;;;;;;28.17;11.63;;;3.90;99.90;;;;;;6240140;22;20158;-87
2022/01/19 11:18:41;;;;;;;17.10;7.33;;;3.90;99.90;;;;;;6287786;22;20000;-87
2022/01/19 11:21:12;;;;;;;10.40;4.93;;;4.20;99.90;;;;;;6264658;22;20011;-87
2022/01/19 11:24:07;;;;;;;8.55;5.05;;;4.00;99.90;;;;;;6262236;22;20000;-87
2022/01/19 11:26:35;;;;;;;9.97;4.23;;;4.10;99.90;;;;;;6290093;22;19993;-87
2022/01/19 11:29:39;;;;;;;9.90;4.20;;;4.20;99.90;;;;;;6289543;22;20008;-88
2022/01/19 11:32:20;;;;;;;8.57;4.17;;;4.10;99.90;;;;;;6232358;22;20108;-88
2022/01/19 11:34:56;;;;;;;7.43;3.70;;;4.10;99.90;;;;;;6292180;22;19999;-87
2022/01/19 11:37:34;;;;;;;10.37;4.30;;;4.10;99.90;;;;;;6291428;22;19996;-88
2022/01/19 11:40:18;;;;;;;10.00;4.30;;;4.20;99.90;;;;;;6289492;22;20016;-88
2022/01/19 11:42:48;;;;;;;8.33;3.70;;;4.30;99.90;;;;;;6265961;22;20002;-88
2022/01/19 11:45:41;;;;;;;8.70;4.10;;;4.30;99.90;;;;;;6291704;22;20007;-88
2022/01/19 11:48:20;;;;;;;10.33;3.63;;;4.40;99.90;;;;;;6291331;22;19995;-88
2022/01/19 11:50:54;;;;;;;7.40;3.37;;;4.40;99.90;;;;;;6289959;22;20063;-88
2022/01/19 11:53:47;;;;;;;8.67;3.17;;;4.50;99.90;;;;;;6269085;22;20000;-88
2022/01/19 11:56:13;;;;;;;5.63;2.80;;;4.60;99.90;;;;;;6295496;22;20000;-87
2022/01/19 11:58:44;;;;;;;7.10;2.77;;;4.80;99.90;;;;;;6298673;22;20047;-88
2022/01/19 12:01:28;;;;;;;9.07;3.10;;;5.00;99.90;;;;;;6272684;22;20026;-87
2022/01/19 12:04:34;;;;;;;6.63;2.80;;;5.20;99.90;;;;;;6272206;22;20261;-87
2022/01/19 12:07:37;;;;;;;10.93;3.87;;;5.30;99.90;;;;;;6281667;22;20060;-89
2022/01/19 12:10:20;;;;;;;10.30;4.00;;;5.40;99.90;;;;;;6294725;22;19999;-87
2022/01/19 12:16:17;;;;;;;10.57;4.53;;;5.40;99.90;;;;;;6294428;22;20063;-87
2022/01/19 12:18:58;;;;;;;10.60;4.80;;;5.50;99.90;;;;;;6267221;22;20272;-85
2022/01/19 12:22:05;;;;;;;;;;;;;;;;;;;;;
2022/01/19 12:25:07;;;;;;;12.70;4.70;;;5.50;99.90;;;;;;6294998;22;20015;-88
2022/01/19 12:28:00;;;;;;;11.73;5.03;;;5.40;99.90;;;;;;6269165;22;19999;-88
2022/01/19 12:39:46;;;;;;;10.47;4.73;;;5.10;99.90;;;;;;6232541;23;20219;-88
2022/01/19 12:42:52;;;;;;;10.67;5.20;;;4.90;99.90;;;;;;6229186;23;20005;-89
2022/01/19 12:45:36;;;;;;;10.57;5.53;;;4.70;99.90;;;;;;6232624;23;20024;-88
2022/01/19 12:48:07;;;;;;;9.80;5.13;;;4.60;99.90;;;;;;6231509;23;20007;-88
2022/01/19 12:50:50;;;;;;;11.67;4.63;;;4.50;99.90;;;;;;6228951;23;20019;-86
2022/01/19 12:53:26;;;;;;;11.33;4.40;;;4.40;99.90;;;;;;6226254;23;20000;-86
2022/01/19 12:56:05;;;;;;;11.43;5.20;;;4.40;99.90;;;;;;6230224;23;20000;-87
2022/01/19 12:58:46;;;;;;;9.27;4.50;;;4.30;99.90;;;;;;6222751;23;20004;-87
2022/01/19 13:01:15;;;;;;;10.63;4.60;;;4.20;99.90;;;;;;6222927;23;20001;-87
2022/01/19 13:03:45;;;;;;;11.30;4.93;;;4.20;99.90;;;;;;6226648;23;20027;-87
2022/01/19 13:06:18;;;;;;;11.07;4.70;;;4.30;99.90;;;;;;6226435;23;20005;-87
2022/01/19 13:09:37;;;;;;;10.43;3.97;;;4.20;99.90;;;;;;6227555;23;20473;-87
2022/01/19 13:11:56;;;;;;;12.33;4.23;;;4.30;99.90;;;;;;6224103;23;20008;-88
2022/01/19 13:14:27;;;;;;;10.20;4.43;;;4.50;99.90;;;;;;6225738;23;20004;-86
2022/01/19 13:16:54;;;;;;;9.82;4.38;;;4.60;99.90;;;;;;6223639;23;20170;-87
2022/01/19 13:19:27;;;;;;;11.47;3.60;;;4.70;99.90;;;;;;6223309;23;20442;-86
2022/01/19 13:22:06;;;;;;;9.93;4.10;;;4.80;99.90;;;;;;6223289;23;20107;-86
2022/01/19 13:24:34;;;;;;;9.10;3.70;;;4.90;99.90;;;;;;6224458;23;20129;-85
2022/01/19 13:27:06;;;;;;;10.20;3.57;;;5.00;99.90;;;;;;6223003;23;20050;-86
2022/01/19 13:29:41;;;;;;;8.95;3.25;;;5.10;99.90;;;;;;6226384;23;20020;-87
2022/01/19 13:32:19;;;;;;;6.87;2.90;;;5.10;99.90;;;;;;6227303;23;20092;-87
2022/01/19 13:35:09;;;;;;;7.40;3.07;;;5.00;99.90;;;;;;6227039;23;20012;-86
2022/01/19 13:37:45;;;;;;;7.83;3.23;;;5.00;99.90;;;;;;6226402;23;20008;-87
2022/01/19 13:40:16;;;;;;;8.90;3.57;;;5.10;99.90;;;;;;6226043;23;20084;-87
2022/01/19 13:42:50;;;;;;;6.63;3.03;;;4.90;99.90;;;;;;6226665;23;20142;-87
2022/01/19 13:45:36;;;;;;;10.40;3.47;;;5.00;99.90;;;;;;6224810;23;20012;-87
2022/01/19 13:51:19;;;;;;;6.97;3.47;;;4.80;99.90;;;;;;6238352;22;20024;-87
2022/01/19 13:54:13;;;;;;;6.77;3.40;;;4.80;99.90;;;;;;6191761;23;20016;-86
2022/01/19 14:00:21;;;;;;;7.67;3.10;;;4.90;99.90;;;;;;6139644;23;20017;-88
2022/01/19 14:03:08;;;;;;;6.53;2.97;;;4.90;99.90;;;;;;6142037;23;20002;-88
2022/01/19 14:05:48;;;;;;;5.63;2.73;;;4.80;99.90;;;;;;6142075;23;20006;-88
2022/01/19 14:09:17;;;;;;;6.87;2.97;;;4.80;99.90;;;;;;6192026;23;20004;-88
2022/01/19 14:12:03;;;;;;;7.83;2.70;;;4.80;99.90;;;;;;6127533;23;20016;-88
2022/01/19 14:15:12;;;;;;;8.00;3.00;;;4.80;99.90;;;;;;6260214;23;20016;-88
2022/01/19 14:17:52;;;;;;;7.40;2.63;;;5.00;99.90;;;;;;6259818;23;20000;-89
2022/01/19 14:20:21;;;;;;;6.93;2.57;;;5.10;99.90;;;;;;6234512;23;20110;-88
2022/01/19 14:23:15;;;;;;;7.33;3.00;;;5.30;99.90;;;;;;6229363;23;20004;-89
2022/01/19 14:25:41;;;;;;;7.37;2.60;;;5.40;99.90;;;;;;6233763;23;20064;-88
2022/01/19 14:28:18;;;;;;;5.83;2.50;;;5.40;99.90;;;;;;6236870;23;20016;-89
2022/01/19 14:31:04;;;;;;;6.17;1.93;;;5.40;99.90;;;;;;6216754;22;20007;-88
2022/01/19 14:33:40;;;;;;;6.60;2.27;;;5.30;99.90;;;;;;6269132;22;20010;-88
2022/01/19 14:36:07;;;;;;;6.03;2.27;;;5.30;99.90;;;;;;6296896;22;20000;-87
2022/01/19 14:38:41;;;;;;;5.93;2.30;;;5.20;99.90;;;;;;6264803;22;20027;-87
2022/01/19 14:41:31;;;;;;;5.07;2.10;;;5.10;99.90;;;;;;6292631;22;20016;-85
2022/01/19 14:44:22;;;;;;;4.60;1.73;;;5.00;99.90;;;;;;6261172;22;20034;-85
2022/01/19 14:47:30;;;;;;;4.13;1.93;;;5.00;99.90;;;;;;6285895;22;19999;-85
2022/01/19 14:49:46;;;;;;;6.03;1.83;;;5.00;99.90;;;;;;6277939;22;20011;-85
2022/01/19 14:52:12;;;;;;;6.33;2.30;;;4.90;99.90;;;;;;6292521;22;20011;-85
2022/01/19 14:54:53;;;;;;;5.00;2.10;;;4.90;99.90;;;;;;6269632;22;20034;-85
2022/01/19 14:57:19;;;;;;;9.53;2.43;;;4.80;99.90;;;;;;6294406;22;20143;-85
2022/01/19 14:59:53;;;;;;;5.87;1.90;;;4.80;99.90;;;;;;6267226;22;20003;-85
2022/01/19 15:02:29;;;;;;;9.43;2.83;;;4.70;99.90;;;;;;6263282;22;20007;-85
2022/01/19 15:05:18;;;;;;;9.37;2.87;;;4.60;99.90;;;;;;6266331;22;20015;-87
2022/01/19 15:08:43;;;;;;;6.70;3.30;;;4.50;99.90;;;;;;6265158;22;20043;-86
2022/01/19 15:11:09;;;;;;;6.70;3.10;;;4.50;99.90;;;;;;6199568;22;20031;-86
2022/01/19 15:16:22;;;;;;;6.57;2.83;;;4.30;99.90;;;;;;6227201;23;20010;-86
2022/01/19 15:18:49;;;;;;;7.63;3.20;;;4.30;99.90;;;;;;6225695;23;20028;-86
2022/01/19 15:21:19;;;;;;;7.27;3.00;;;4.20;99.90;;;;;;6227034;23;20008;-86
2022/01/19 15:23:53;;;;;;;10.47;3.07;;;4.20;99.90;;;;;;6227043;23;20009;-85
2022/01/19 15:26:49;;;;;;;6.63;2.70;;;4.20;99.90;;;;;;6234430;23;20509;-86
2022/01/19 15:29:29;;;;;;;11.90;3.87;;;4.20;99.90;;;;;;6231203;23;20001;-85
2022/01/19 15:31:58;;;;;;;9.43;3.03;;;4.10;99.90;;;;;;6226789;23;20008;-86
2022/01/19 15:34:36;;;;;;;10.83;2.97;;;4.00;99.90;;;;;;6227910;23;20035;-85
2022/01/19 15:37:26;;;;;;;8.27;3.63;;;4.00;99.90;;;;;;6231983;23;20069;-86
2022/01/19 15:40:12;;;;;;;8.03;3.27;;;4.00;99.90;;;;;;6234733;23;20008;-86
2022/01/19 15:43:19;;;;;;;;;;;;;;;;;;;;;
2022/01/19 15:45:50;;;;;;;10.03;3.47;;;3.90;99.90;;;;;;6235999;23;20418;-85
2022/01/19 15:48:26;;;;;;;8.93;3.33;;;3.80;99.90;;;;;;6226852;23;20035;-86
2022/01/19 15:50:58;;;;;;;10.20;3.63;;;3.70;99.90;;;;;;6227697;23;19996;-86
2022/01/19 15:53:50;;;;;;;8.67;3.20;;;3.70;99.90;;;;;;6226709;23;20005;-86
2022/01/19 15:56:21;;;;;;;8.13;3.63;;;3.70;99.90;;;;;;6224292;23;20299;-86
2022/01/19 15:58:48;;;;;;;7.53;2.90;;;3.60;99.90;;;;;;6223569;23;20011;-86
2022/01/19 16:01:14;;;;;;;7.77;3.63;;;3.70;99.90;;;;;;6225085;23;20088;-87
2022/01/19 16:04:02;;;;;;;12.10;3.63;;;3.50;99.90;;;;;;6228981;23;19997;-88
2022/01/19 16:06:54;;;;;;;6.53;2.87;;;3.50;99.90;;;;;;6233572;23;20001;-87
2022/01/19 16:09:28;;;;;;;;;;;3.40;99.90;;;;;;6230321;23;20000;-87
2022/01/19 16:12:38;;;;;;;8.87;3.20;;;3.50;99.90;;;;;;6254410;23;19927;-87
2022/01/19 16:15:04;;;;;;;9.60;4.10;;;3.40;99.90;;;;;;6261924;23;20011;-87
2022/01/19 16:17:33;;;;;;;10.07;4.23;;;3.40;99.90;;;;;;6259565;23;20007;-87
2022/01/19 16:28:25;;;;;;;11.00;3.57;;;3.40;99.90;;;;;;6259502;23;20089;-85
2022/01/19 16:30:54;;;;;;;11.67;3.87;;;3.50;99.90;;;;;;6245240;22;20000;-85
2022/01/19 16:33:19;;;;;;;8.40;3.50;;;3.50;99.90;;;;;;6255915;22;20008;-85
2022/01/19 16:35:54;;;;;;;9.17;3.43;;;3.50;99.90;;;;;;6286911;22;20472;-86
2022/01/19 16:38:24;;;;;;;9.13;3.60;;;3.50;99.90;;;;;;6256828;22;20008;-86
2022/01/19 16:41:02;;;;;;;7.60;3.00;;;3.60;99.90;;;;;;6291080;22;20034;-86
2022/01/19 16:43:31;;;;;;;10.23;4.13;;;3.60;99.90;;;;;;6284821;22;20035;-86
2022/01/19 16:46:07;;;;;;;7.03;3.27;;;3.60;99.90;;;;;;6284520;22;20138;-86
2022/01/19 16:48:42;;;;;;;8.87;3.63;;;3.60;99.90;;;;;;6254126;22;20000;-86
2022/01/19 16:51:09;;;;;;;12.77;4.00;;;3.60;99.90;;;;;;6254686;22;20000;-86
2022/01/19 16:53:39;;;;;;;9.13;3.93;;;3.60;99.90;;;;;;6255349;22;20003;-87
2022/01/19 16:56:11;;;;;;;8.87;3.87;;;3.60;99.90;;;;;;6281915;22;20015;-86
2022/01/19 16:58:41;;;;;;;;;;;3.60;99.90;;;;;;6282975;22;20315;-87
2022/01/19 17:01:10;;;;;;;10.43;3.00;;;3.60;99.90;;;;;;6256427;22;19899;-87
2022/01/19 17:03:36;;;;;;;9.83;3.17;;;3.60;99.90;;;;;;6255146;22;20007;-87
2022/01/19 17:06:15;;;;;;;8.13;3.30;;;3.60;99.90;;;;;;6254345;22;20008;-86
2022/01/19 17:08:43;;;;;;;8.60;3.40;;;3.60;99.90;;;;;;6284849;22;20000;-86
2022/01/19 17:11:09;;;;;;;8.47;3.50;;;3.50;99.90;;;;;;6284175;22;20026;-87
2022/01/19 17:14:08;;;;;;;10.63;3.67;;;3.60;99.90;;;;;;6259132;22;20075;-86
2022/01/19 17:16:55;;;;;;;9.50;3.50;;;3.50;99.90;;;;;;6286302;22;19995;-86
2022/01/19 17:19:24;;;;;;;8.23;3.43;;;3.60;99.90;;;;;;6258030;22;20000;-87
2022/01/19 17:21:52;;;;;;;8.37;3.17;;;3.60;99.90;;;;;;6286322;22;20082;-86
2022/01/19 17:24:18;;;;;;;9.47;3.10;;;3.50;99.90;;;;;;6258240;22;20004;-87
2022/01/19 17:26:48;;;;;;;9.97;3.73;;;3.50;99.90;;;;;;6285584;22;20042;-87
2022/01/19 17:29:15;;;;;;;11.03;3.87;;;3.50;99.90;;;;;;6256209;22;20002;-87
2022/01/19 17:31:41;;;;;;;11.33;3.83;;;3.50;99.90;;;;;;6258706;22;20000;-87
2022/01/19 17:34:07;;;;;;;9.63;3.80;;;3.50;99.90;;;;;;6257935;22;20007;-86
2022/01/19 17:36:36;;;;;;;11.00;3.77;;;3.60;99.90;;;;;;6259028;22;20016;-87
2022/01/19 17:39:04;;;;;;;8.33;3.70;;;3.50;99.90;;;;;;6256000;22;20023;-87
2022/01/19 17:41:29;;;;;;;10.20;4.33;;;3.50;99.90;;;;;;6256032;22;20095;-87
2022/01/19 17:43:55;;;;;;;8.90;3.93;;;3.50;99.90;;;;;;6287535;22;20000;-87
2022/01/19 17:46:28;;;;;;;9.07;3.50;;;3.50;99.90;;;;;;6261842;22;20027;-87
2022/01/19 17:49:03;;;;;;;7.13;2.60;;;3.40;99.90;;;;;;6259582;22;20000;-86
2022/01/19 17:51:36;;;;;;;9.67;4.00;;;3.50;99.90;;;;;;6284605;22;20030;-87
2022/01/19 17:56:40;;;;;;;9.53;3.50;;;3.40;99.90;;;;;;6283113;22;20023;-90
2022/01/19 17:59:07;;;;;;;12.43;4.53;;;3.40;99.90;;;;;;6254646;22;20008;-91
2022/01/19 18:01:33;;;;;;;10.00;3.87;;;3.40;99.90;;;;;;6250455;22;20049;-90
2022/01/19 18:04:05;;;;;;;10.30;3.93;;;3.40;99.90;;;;;;6252495;22;20027;-90
2022/01/19 18:06:34;;;;;;;10.63;3.55;;;3.40;99.90;;;;;;6276069;22;19992;-90
2022/01/19 18:09:10;;;;;;;9.37;3.80;;;3.40;99.90;;;;;;6275147;22;20439;-91
2022/01/19 18:11:46;;;;;;;8.53;3.90;;;3.40;99.90;;;;;;6275596;22;20338;-90
2022/01/19 18:14:12;;;;;;;9.93;4.00;;;3.50;99.90;;;;;;6276001;22;20078;-90
2022/01/19 18:16:49;;;;;;;;;;;;;;;;;;;;;
2022/01/19 18:19:15;;;;;;;7.53;3.67;;;3.40;99.90;;;;;;6281942;22;20091;-90
2022/01/19 18:22:15;;;;;;;14.10;4.60;;;3.40;99.90;;;;;;6285481;22;20000;-90
2022/01/19 18:24:41;;;;;;;10.53;3.77;;;3.40;99.90;;;;;;6252727;22;20507;-90
2022/01/19 18:27:11;;;;;;;10.03;3.97;;;3.40;99.90;;;;;;6253240;22;20087;-90
2022/01/19 18:29:39;;;;;;;10.30;4.00;;;3.40;99.90;;;;;;6253300;22;20042;-90
2022/01/19 18:32:19;;;;;;;9.37;3.63;;;3.40;99.90;;;;;;6253001;22;20342;-90
2022/01/19 18:34:53;;;;;;;9.83;3.87;;;3.30;99.90;;;;;;6252717;22;20457;-91
2022/01/19 18:37:20;;;;;;;11.10;4.37;;;3.40;99.90;;;;;;6278238;22;20568;-91
2022/01/19 18:39:52;;;;;;;8.93;3.57;;;3.40;99.90;;;;;;6252014;22;20028;-90